sensor_id;sensor_type;location;lat;lon;timestamp;temperature;humidity
24250;DHT22;12379;49.820;8.648;2022-07-29T00:00:39;22.10;69.40
24250;DHT22;12379;49.820;8.648;2022-07-29T00:03:05;22.10;70.10
24250;DHT22;12379;49.820;8.648;2022-07-29T00:05:30;22.00;70.00
24250;DHT22;12379;49.820;8.648;2022-07-29T00:07:56;21.90;71.20
24250;DHT22;12379;49.820;8.648;2022-07-29T00:10:22;21.80;70.30
24250;DHT22;12379;49.820;8.648;2022-07-29T00:12:47;21.80;70.30
24250;DHT22;12379;49.820;8.648;2022-07-29T00:15:13;21.70;70.50
24250;DHT22;12379;49.820;8.648;2022-07-29T00:17:40;21.70;70.90
24250;DHT22;12379;49.820;8.648;2022-07-29T00:20:06;21.80;70.10
24250;DHT22;12379;49.820;8.648;2022-07-29T00:22:32;21.80;70.10
24250;DHT22;12379;49.820;8.648;2022-07-29T00:24:58;21.80;70.20
24250;DHT22;12379;49.820;8.648;2022-07-29T00:27:23;21.80;70.40
24250;DHT22;12379;49.820;8.648;2022-07-29T00:29:49;21.70;70.90
24250;DHT22;12379;49.820;8.648;2022-07-29T00:32:14;21.60;71.20
24250;DHT22;12379;49.820;8.648;2022-07-29T00:34:40;21.60;71.50
24250;DHT22;12379;49.820;8.648;2022-07-29T00:37:25;21.60;71.10
24250;DHT22;12379;49.820;8.648;2022-07-29T00:39:50;21.50;71.00
24250;DHT22;12379;49.820;8.648;2022-07-29T00:42:16;21.50;71.00
24250;DHT22;12379;49.820;8.648;2022-07-29T00:44:42;21.50;71.20
24250;DHT22;12379;49.820;8.648;2022-07-29T00:47:10;21.50;70.60
24250;DHT22;12379;49.820;8.648;2022-07-29T00:49:35;21.50;71.10
24250;DHT22;12379;49.820;8.648;2022-07-29T00:52:03;21.50;71.30
24250;DHT22;12379;49.820;8.648;2022-07-29T00:54:29;21.40;71.90
24250;DHT22;12379;49.820;8.648;2022-07-29T00:56:57;21.40;72.40
24250;DHT22;12379;49.820;8.648;2022-07-29T00:59:24;21.20;72.30
24250;DHT22;12379;49.820;8.648;2022-07-29T01:01:50;21.20;72.80
24250;DHT22;12379;49.820;8.648;2022-07-29T01:04:15;21.10;73.50
24250;DHT22;12379;49.820;8.648;2022-07-29T01:06:42;21.00;73.80
24250;DHT22;12379;49.820;8.648;2022-07-29T01:09:08;21.00;74.00
24250;DHT22;12379;49.820;8.648;2022-07-29T01:11:35;20.90;74.20
24250;DHT22;12379;49.820;8.648;2022-07-29T01:14:01;20.90;74.40
24250;DHT22;12379;49.820;8.648;2022-07-29T01:16:31;20.90;74.50
24250;DHT22;12379;49.820;8.648;2022-07-29T01:19:02;20.80;75.30
24250;DHT22;12379;49.820;8.648;2022-07-29T01:29:57;20.60;75.60
24250;DHT22;12379;49.820;8.648;2022-07-29T01:32:29;20.60;76.00
24250;DHT22;12379;49.820;8.648;2022-07-29T01:35:11;20.50;75.30
24250;DHT22;12379;49.820;8.648;2022-07-29T01:37:45;20.50;73.80
24250;DHT22;12379;49.820;8.648;2022-07-29T01:40:22;20.60;73.90
24250;DHT22;12379;49.820;8.648;2022-07-29T01:42:52;20.50;72.30
24250;DHT22;12379;49.820;8.648;2022-07-29T01:45:23;20.60;72.30
24250;DHT22;12379;49.820;8.648;2022-07-29T01:48:07;20.50;73.20
24250;DHT22;12379;49.820;8.648;2022-07-29T01:50:40;20.40;74.00
24250;DHT22;12379;49.820;8.648;2022-07-29T01:53:10;20.30;74.50
24250;DHT22;12379;49.820;8.648;2022-07-29T01:55:44;20.30;74.40
24250;DHT22;12379;49.820;8.648;2022-07-29T01:58:11;20.20;74.10
24250;DHT22;12379;49.820;8.648;2022-07-29T02:00:38;20.20;74.10
24250;DHT22;12379;49.820;8.648;2022-07-29T02:03:09;20.20;74.10
24250;DHT22;12379;49.820;8.648;2022-07-29T02:05:39;20.20;73.70
24250;DHT22;12379;49.820;8.648;2022-07-29T02:08:06;20.20;73.40
24250;DHT22;12379;49.820;8.648;2022-07-29T02:10:33;20.20;73.40
24250;DHT22;12379;49.820;8.648;2022-07-29T02:13:01;20.20;73.10
24250;DHT22;12379;49.820;8.648;2022-07-29T02:15:29;20.20;73.00
24250;DHT22;12379;49.820;8.648;2022-07-29T02:18:00;20.20;72.80
24250;DHT22;12379;49.820;8.648;2022-07-29T02:20:28;20.30;72.70
24250;DHT22;12379;49.820;8.648;2022-07-29T02:22:55;20.20;72.80
24250;DHT22;12379;49.820;8.648;2022-07-29T02:25:23;20.20;72.70
24250;DHT22;12379;49.820;8.648;2022-07-29T02:27:51;20.10;72.70
24250;DHT22;12379;49.820;8.648;2022-07-29T02:30:18;20.10;72.50
24250;DHT22;12379;49.820;8.648;2022-07-29T02:32:45;20.10;72.60
24250;DHT22;12379;49.820;8.648;2022-07-29T02:35:13;20.10;72.90
24250;DHT22;12379;49.820;8.648;2022-07-29T02:37:40;20.10;73.20
24250;DHT22;12379;49.820;8.648;2022-07-29T02:40:09;20.10;73.40
24250;DHT22;12379;49.820;8.648;2022-07-29T02:42:37;20.00;73.90
24250;DHT22;12379;49.820;8.648;2022-07-29T02:45:05;19.90;73.60
24250;DHT22;12379;49.820;8.648;2022-07-29T02:47:36;19.90;73.30
24250;DHT22;12379;49.820;8.648;2022-07-29T02:50:26;20.00;72.50
24250;DHT22;12379;49.820;8.648;2022-07-29T02:53:09;20.00;72.20
24250;DHT22;12379;49.820;8.648;2022-07-29T02:56:06;20.00;72.10
24250;DHT22;12379;49.820;8.648;2022-07-29T02:58:36;20.10;71.00
24250;DHT22;12379;49.820;8.648;2022-07-29T03:01:07;20.10;71.10
24250;DHT22;12379;49.820;8.648;2022-07-29T03:03:37;20.20;71.40
24250;DHT22;12379;49.820;8.648;2022-07-29T03:06:04;20.10;71.60
24250;DHT22;12379;49.820;8.648;2022-07-29T03:08:31;20.00;71.90
24250;DHT22;12379;49.820;8.648;2022-07-29T03:10:57;20.00;72.10
24250;DHT22;12379;49.820;8.648;2022-07-29T03:13:24;19.90;72.40
24250;DHT22;12379;49.820;8.648;2022-07-29T03:15:50;19.90;72.50
24250;DHT22;12379;49.820;8.648;2022-07-29T03:18:16;19.80;72.40
24250;DHT22;12379;49.820;8.648;2022-07-29T03:20:42;19.80;72.70
24250;DHT22;12379;49.820;8.648;2022-07-29T03:23:08;19.70;73.30
24250;DHT22;12379;49.820;8.648;2022-07-29T03:25:34;19.60;73.60
24250;DHT22;12379;49.820;8.648;2022-07-29T03:28:00;19.60;73.60
24250;DHT22;12379;49.820;8.648;2022-07-29T03:30:26;19.60;74.00
24250;DHT22;12379;49.820;8.648;2022-07-29T03:32:53;19.50;74.00
24250;DHT22;12379;49.820;8.648;2022-07-29T03:35:19;19.60;73.80
24250;DHT22;12379;49.820;8.648;2022-07-29T03:37:45;19.50;73.90
24250;DHT22;12379;49.820;8.648;2022-07-29T03:40:14;19.50;73.90
24250;DHT22;12379;49.820;8.648;2022-07-29T03:42:42;19.50;74.20
24250;DHT22;12379;49.820;8.648;2022-07-29T03:45:12;19.50;74.40
24250;DHT22;12379;49.820;8.648;2022-07-29T03:47:43;19.50;74.30
24250;DHT22;12379;49.820;8.648;2022-07-29T03:50:12;19.50;74.50
24250;DHT22;12379;49.820;8.648;2022-07-29T03:52:40;19.40;74.60
24250;DHT22;12379;49.820;8.648;2022-07-29T03:55:06;19.40;74.80
24250;DHT22;12379;49.820;8.648;2022-07-29T03:57:34;19.30;74.90
24250;DHT22;12379;49.820;8.648;2022-07-29T04:00:02;19.30;75.00
24250;DHT22;12379;49.820;8.648;2022-07-29T04:02:29;19.40;74.70
24250;DHT22;12379;49.820;8.648;2022-07-29T04:04:54;19.40;74.60
24250;DHT22;12379;49.820;8.648;2022-07-29T04:07:20;19.40;74.30
24250;DHT22;12379;49.820;8.648;2022-07-29T04:09:46;19.40;74.50
24250;DHT22;12379;49.820;8.648;2022-07-29T04:12:11;19.40;74.50
24250;DHT22;12379;49.820;8.648;2022-07-29T04:14:37;19.30;74.70
24250;DHT22;12379;49.820;8.648;2022-07-29T04:17:03;19.30;74.90
24250;DHT22;12379;49.820;8.648;2022-07-29T04:19:29;19.20;75.00
24250;DHT22;12379;49.820;8.648;2022-07-29T04:21:55;19.30;75.10
24250;DHT22;12379;49.820;8.648;2022-07-29T04:24:21;19.20;75.60
24250;DHT22;12379;49.820;8.648;2022-07-29T04:26:47;19.20;75.30
24250;DHT22;12379;49.820;8.648;2022-07-29T04:29:13;19.20;75.30
24250;DHT22;12379;49.820;8.648;2022-07-29T04:31:40;19.30;75.70
24250;DHT22;12379;49.820;8.648;2022-07-29T04:34:05;19.20;75.80
24250;DHT22;12379;49.820;8.648;2022-07-29T04:36:31;19.20;75.60
24250;DHT22;12379;49.820;8.648;2022-07-29T04:38:57;19.20;76.10
24250;DHT22;12379;49.820;8.648;2022-07-29T04:41:23;19.20;76.20
24250;DHT22;12379;49.820;8.648;2022-07-29T04:43:48;19.20;76.10
24250;DHT22;12379;49.820;8.648;2022-07-29T04:46:14;19.30;76.00
24250;DHT22;12379;49.820;8.648;2022-07-29T04:48:40;19.30;76.10
24250;DHT22;12379;49.820;8.648;2022-07-29T04:51:10;19.30;76.50
24250;DHT22;12379;49.820;8.648;2022-07-29T04:53:39;19.30;76.40
24250;DHT22;12379;49.820;8.648;2022-07-29T04:56:05;19.30;75.90
24250;DHT22;12379;49.820;8.648;2022-07-29T04:58:30;19.40;76.00
24250;DHT22;12379;49.820;8.648;2022-07-29T05:00:56;19.40;76.30
24250;DHT22;12379;49.820;8.648;2022-07-29T05:03:25;19.40;76.20
24250;DHT22;12379;49.820;8.648;2022-07-29T05:05:51;19.40;76.40
24250;DHT22;12379;49.820;8.648;2022-07-29T05:08:19;19.40;76.60
24250;DHT22;12379;49.820;8.648;2022-07-29T05:10:45;19.50;76.40
24250;DHT22;12379;49.820;8.648;2022-07-29T05:13:11;19.50;76.30
24250;DHT22;12379;49.820;8.648;2022-07-29T05:15:37;19.50;76.30
24250;DHT22;12379;49.820;8.648;2022-07-29T05:18:03;19.50;76.30
24250;DHT22;12379;49.820;8.648;2022-07-29T05:20:29;19.60;75.40
24250;DHT22;12379;49.820;8.648;2022-07-29T05:22:56;19.70;75.30
24250;DHT22;12379;49.820;8.648;2022-07-29T05:25:23;19.70;75.30
24250;DHT22;12379;49.820;8.648;2022-07-29T05:27:48;19.70;75.50
24250;DHT22;12379;49.820;8.648;2022-07-29T05:30:14;19.70;75.30
24250;DHT22;12379;49.820;8.648;2022-07-29T05:32:40;19.80;74.90
24250;DHT22;12379;49.820;8.648;2022-07-29T05:35:06;19.90;75.00
24250;DHT22;12379;49.820;8.648;2022-07-29T05:37:32;20.00;74.70
24250;DHT22;12379;49.820;8.648;2022-07-29T05:39:58;20.00;74.60
24250;DHT22;12379;49.820;8.648;2022-07-29T05:42:25;20.00;74.40
24250;DHT22;12379;49.820;8.648;2022-07-29T05:44:52;20.00;74.40
24250;DHT22;12379;49.820;8.648;2022-07-29T05:47:18;20.00;75.10
24250;DHT22;12379;49.820;8.648;2022-07-29T05:49:44;20.00;74.50
24250;DHT22;12379;49.820;8.648;2022-07-29T05:52:12;20.00;74.90
24250;DHT22;12379;49.820;8.648;2022-07-29T05:54:39;19.90;75.40
24250;DHT22;12379;49.820;8.648;2022-07-29T05:57:05;20.00;75.90
24250;DHT22;12379;49.820;8.648;2022-07-29T05:59:31;20.10;74.70
24250;DHT22;12379;49.820;8.648;2022-07-29T06:02:00;20.30;74.80
24250;DHT22;12379;49.820;8.648;2022-07-29T06:04:26;20.50;74.30
24250;DHT22;12379;49.820;8.648;2022-07-29T06:06:51;20.80;74.10
24250;DHT22;12379;49.820;8.648;2022-07-29T06:09:17;20.90;74.20
24250;DHT22;12379;49.820;8.648;2022-07-29T06:11:46;21.30;73.50
24250;DHT22;12379;49.820;8.648;2022-07-29T06:14:11;22.00;72.60
24250;DHT22;12379;49.820;8.648;2022-07-29T06:16:40;22.50;70.40
24250;DHT22;12379;49.820;8.648;2022-07-29T06:19:28;23.10;68.60
24250;DHT22;12379;49.820;8.648;2022-07-29T06:22:09;24.10;66.50
24250;DHT22;12379;49.820;8.648;2022-07-29T06:24:36;24.80;66.40
24250;DHT22;12379;49.820;8.648;2022-07-29T06:27:11;25.90;63.00
24250;DHT22;12379;49.820;8.648;2022-07-29T06:29:40;27.00;59.70
24250;DHT22;12379;49.820;8.648;2022-07-29T06:32:17;27.40;58.80
24250;DHT22;12379;49.820;8.648;2022-07-29T06:34:44;27.90;56.30
24250;DHT22;12379;49.820;8.648;2022-07-29T06:37:14;28.10;56.50
24250;DHT22;12379;49.820;8.648;2022-07-29T06:39:58;28.30;56.40
24250;DHT22;12379;49.820;8.648;2022-07-29T06:42:46;28.30;56.30
24250;DHT22;12379;49.820;8.648;2022-07-29T06:45:11;28.90;55.20
24250;DHT22;12379;49.820;8.648;2022-07-29T06:47:37;29.20;54.30
24250;DHT22;12379;49.820;8.648;2022-07-29T06:50:06;28.60;55.00
24250;DHT22;12379;49.820;8.648;2022-07-29T06:52:40;28.50;55.10
24250;DHT22;12379;49.820;8.648;2022-07-29T06:55:32;28.20;56.10
24250;DHT22;12379;49.820;8.648;2022-07-29T06:58:02;27.50;56.30
24250;DHT22;12379;49.820;8.648;2022-07-29T07:00:45;26.90;58.20
24250;DHT22;12379;49.820;8.648;2022-07-29T07:03:13;26.50;58.30
24250;DHT22;12379;49.820;8.648;2022-07-29T07:05:44;25.80;59.90
24250;DHT22;12379;49.820;8.648;2022-07-29T07:08:14;25.80;60.80
24250;DHT22;12379;49.820;8.648;2022-07-29T07:11:02;25.70;60.50
24250;DHT22;12379;49.820;8.648;2022-07-29T07:13:37;25.70;60.40
24250;DHT22;12379;49.820;8.648;2022-07-29T07:16:08;25.60;61.60
24250;DHT22;12379;49.820;8.648;2022-07-29T07:18:33;26.20;60.70
24250;DHT22;12379;49.820;8.648;2022-07-29T07:21:13;27.00;60.50
24250;DHT22;12379;49.820;8.648;2022-07-29T07:24:13;28.00;57.60
24250;DHT22;12379;49.820;8.648;2022-07-29T07:26:59;28.80;56.70
24250;DHT22;12379;49.820;8.648;2022-07-29T07:29:36;29.40;54.90
24250;DHT22;12379;49.820;8.648;2022-07-29T07:32:30;29.80;54.90
24250;DHT22;12379;49.820;8.648;2022-07-29T07:35:16;30.60;54.30
24250;DHT22;12379;49.820;8.648;2022-07-29T07:37:50;31.00;53.30
24250;DHT22;12379;49.820;8.648;2022-07-29T07:40:21;30.20;53.40
24250;DHT22;12379;49.820;8.648;2022-07-29T07:42:58;30.50;54.10
24250;DHT22;12379;49.820;8.648;2022-07-29T07:45:47;30.60;52.80
24250;DHT22;12379;49.820;8.648;2022-07-29T07:48:21;30.40;53.40
24250;DHT22;12379;49.820;8.648;2022-07-29T07:50:46;30.30;54.40
24250;DHT22;12379;49.820;8.648;2022-07-29T07:53:15;30.20;54.30
24250;DHT22;12379;49.820;8.648;2022-07-29T07:55:47;30.50;53.60
24250;DHT22;12379;49.820;8.648;2022-07-29T07:58:15;30.40;53.50
24250;DHT22;12379;49.820;8.648;2022-07-29T08:00:41;30.40;53.50
24250;DHT22;12379;49.820;8.648;2022-07-29T08:03:06;30.70;54.30
24250;DHT22;12379;49.820;8.648;2022-07-29T08:05:32;30.50;54.10
24250;DHT22;12379;49.820;8.648;2022-07-29T08:07:58;30.00;54.60
24250;DHT22;12379;49.820;8.648;2022-07-29T08:10:24;29.60;55.90
24250;DHT22;12379;49.820;8.648;2022-07-29T08:13:09;29.40;56.20
24250;DHT22;12379;49.820;8.648;2022-07-29T08:15:39;29.60;56.40
24250;DHT22;12379;49.820;8.648;2022-07-29T08:18:08;29.20;56.90
24250;DHT22;12379;49.820;8.648;2022-07-29T08:20:39;29.30;58.30
24250;DHT22;12379;49.820;8.648;2022-07-29T08:23:07;29.40;57.40
24250;DHT22;12379;49.820;8.648;2022-07-29T08:25:37;30.00;58.30
24250;DHT22;12379;49.820;8.648;2022-07-29T08:28:06;30.10;57.50
24250;DHT22;12379;49.820;8.648;2022-07-29T08:30:32;30.00;57.90
24250;DHT22;12379;49.820;8.648;2022-07-29T08:32:58;30.20;57.50
24250;DHT22;12379;49.820;8.648;2022-07-29T08:35:25;29.80;58.30
24250;DHT22;12379;49.820;8.648;2022-07-29T08:37:53;30.20;58.40
24250;DHT22;12379;49.820;8.648;2022-07-29T08:40:20;30.50;57.50
24250;DHT22;12379;49.820;8.648;2022-07-29T08:42:53;29.90;59.20
24250;DHT22;12379;49.820;8.648;2022-07-29T08:45:23;29.70;59.70
24250;DHT22;12379;49.820;8.648;2022-07-29T08:47:48;29.10;61.20
24250;DHT22;12379;49.820;8.648;2022-07-29T08:50:14;29.00;62.70
24250;DHT22;12379;49.820;8.648;2022-07-29T08:52:40;28.70;64.20
24250;DHT22;12379;49.820;8.648;2022-07-29T08:55:10;28.30;65.60
24250;DHT22;12379;49.820;8.648;2022-07-29T08:57:38;28.30;66.10
24250;DHT22;12379;49.820;8.648;2022-07-29T09:00:09;28.40;66.30
24250;DHT22;12379;49.820;8.648;2022-07-29T09:02:41;28.80;66.10
24250;DHT22;12379;49.820;8.648;2022-07-29T09:05:10;28.70;65.70
24250;DHT22;12379;49.820;8.648;2022-07-29T09:07:39;28.60;65.20
24250;DHT22;12379;49.820;8.648;2022-07-29T09:10:08;28.70;65.10
24250;DHT22;12379;49.820;8.648;2022-07-29T09:12:35;29.00;65.40
24250;DHT22;12379;49.820;8.648;2022-07-29T09:15:04;29.30;64.40
24250;DHT22;12379;49.820;8.648;2022-07-29T09:17:47;29.60;63.70
24250;DHT22;12379;49.820;8.648;2022-07-29T09:20:19;28.70;64.10
24250;DHT22;12379;49.820;8.648;2022-07-29T09:22:45;28.40;66.80
24250;DHT22;12379;49.820;8.648;2022-07-29T09:38:36;28.60;66.30
24250;DHT22;12379;49.820;8.648;2022-07-29T09:41:05;28.50;65.80
24250;DHT22;12379;49.820;8.648;2022-07-29T09:43:31;28.80;65.80
24250;DHT22;12379;49.820;8.648;2022-07-29T09:46:25;29.00;65.20
24250;DHT22;12379;49.820;8.648;2022-07-29T09:51:20;29.70;65.50
24250;DHT22;12379;49.820;8.648;2022-07-29T09:53:46;30.00;64.20
24250;DHT22;12379;49.820;8.648;2022-07-29T09:56:11;29.80;63.20
24250;DHT22;12379;49.820;8.648;2022-07-29T09:58:37;29.90;63.50
24250;DHT22;12379;49.820;8.648;2022-07-29T10:01:03;30.10;63.20
24250;DHT22;12379;49.820;8.648;2022-07-29T10:03:29;30.20;62.40
24250;DHT22;12379;49.820;8.648;2022-07-29T10:06:05;29.80;62.70
24250;DHT22;12379;49.820;8.648;2022-07-29T10:08:32;29.70;63.60
24250;DHT22;12379;49.820;8.648;2022-07-29T10:11:15;29.50;63.30
24250;DHT22;12379;49.820;8.648;2022-07-29T10:13:42;29.20;64.10
24250;DHT22;12379;49.820;8.648;2022-07-29T10:16:08;29.10;64.80
24250;DHT22;12379;49.820;8.648;2022-07-29T10:18:34;29.40;64.70
24250;DHT22;12379;49.820;8.648;2022-07-29T10:21:00;29.70;64.40
24250;DHT22;12379;49.820;8.648;2022-07-29T10:23:28;30.10;63.80
24250;DHT22;12379;49.820;8.648;2022-07-29T10:25:54;30.00;63.10
24250;DHT22;12379;49.820;8.648;2022-07-29T10:28:19;30.10;62.70
24250;DHT22;12379;49.820;8.648;2022-07-29T10:30:46;30.30;61.80
24250;DHT22;12379;49.820;8.648;2022-07-29T10:33:47;30.20;62.20
24250;DHT22;12379;49.820;8.648;2022-07-29T10:36:45;30.40;62.00
24250;DHT22;12379;49.820;8.648;2022-07-29T10:42:11;30.20;63.70
24250;DHT22;12379;49.820;8.648;2022-07-29T10:44:40;30.20;63.10
24250;DHT22;12379;49.820;8.648;2022-07-29T10:47:07;30.40;62.30
24250;DHT22;12379;49.820;8.648;2022-07-29T10:49:33;30.60;62.40
24250;DHT22;12379;49.820;8.648;2022-07-29T10:52:09;30.40;62.50
24250;DHT22;12379;49.820;8.648;2022-07-29T10:57:30;30.10;63.20
24250;DHT22;12379;49.820;8.648;2022-07-29T11:05:06;29.80;64.60
24250;DHT22;12379;49.820;8.648;2022-07-29T11:07:37;29.80;64.20
24250;DHT22;12379;49.820;8.648;2022-07-29T11:15:05;29.60;63.40
24250;DHT22;12379;49.820;8.648;2022-07-29T11:20:34;29.20;64.50
24250;DHT22;12379;49.820;8.648;2022-07-29T11:23:00;29.40;64.50
24250;DHT22;12379;49.820;8.648;2022-07-29T11:25:26;29.40;64.80
24250;DHT22;12379;49.820;8.648;2022-07-29T11:28:09;29.40;64.60
24250;DHT22;12379;49.820;8.648;2022-07-29T11:30:52;29.40;64.90
24250;DHT22;12379;49.820;8.648;2022-07-29T11:33:32;29.30;65.00
24250;DHT22;12379;49.820;8.648;2022-07-29T11:36:11;29.20;64.80
24250;DHT22;12379;49.820;8.648;2022-07-29T11:38:37;29.00;66.00
24250;DHT22;12379;49.820;8.648;2022-07-29T11:41:26;29.00;66.00
24250;DHT22;12379;49.820;8.648;2022-07-29T11:43:55;28.90;65.70
24250;DHT22;12379;49.820;8.648;2022-07-29T11:46:49;28.80;66.20
24250;DHT22;12379;49.820;8.648;2022-07-29T11:49:22;28.80;66.50
24250;DHT22;12379;49.820;8.648;2022-07-29T11:51:55;29.10;66.40
24250;DHT22;12379;49.820;8.648;2022-07-29T11:54:27;29.30;65.90
24250;DHT22;12379;49.820;8.648;2022-07-29T11:56:57;29.60;65.50
24250;DHT22;12379;49.820;8.648;2022-07-29T11:59:24;29.70;64.90
24250;DHT22;12379;49.820;8.648;2022-07-29T12:01:57;29.80;64.00
24250;DHT22;12379;49.820;8.648;2022-07-29T12:04:23;29.60;64.10
24250;DHT22;12379;49.820;8.648;2022-07-29T12:06:53;29.50;64.20
24250;DHT22;12379;49.820;8.648;2022-07-29T12:09:20;29.30;64.70
24250;DHT22;12379;49.820;8.648;2022-07-29T12:11:46;29.10;64.80
24250;DHT22;12379;49.820;8.648;2022-07-29T12:14:30;29.10;65.50
24250;DHT22;12379;49.820;8.648;2022-07-29T12:16:57;29.10;64.90
24250;DHT22;12379;49.820;8.648;2022-07-29T12:19:23;29.10;64.50
24250;DHT22;12379;49.820;8.648;2022-07-29T12:21:54;29.30;65.00
24250;DHT22;12379;49.820;8.648;2022-07-29T12:24:20;29.50;64.00
24250;DHT22;12379;49.820;8.648;2022-07-29T12:26:55;29.70;63.90
24250;DHT22;12379;49.820;8.648;2022-07-29T12:29:21;29.90;62.30
24250;DHT22;12379;49.820;8.648;2022-07-29T12:31:51;30.00;61.90
24250;DHT22;12379;49.820;8.648;2022-07-29T12:34:20;30.10;62.60
24250;DHT22;12379;49.820;8.648;2022-07-29T12:36:48;30.00;62.00
24250;DHT22;12379;49.820;8.648;2022-07-29T12:39:15;30.10;61.30
24250;DHT22;12379;49.820;8.648;2022-07-29T12:41:42;30.20;61.20
24250;DHT22;12379;49.820;8.648;2022-07-29T12:44:08;30.30;60.20
24250;DHT22;12379;49.820;8.648;2022-07-29T12:46:34;30.10;60.30
24250;DHT22;12379;49.820;8.648;2022-07-29T12:49:03;30.00;61.10
24250;DHT22;12379;49.820;8.648;2022-07-29T12:51:38;30.10;59.70
24250;DHT22;12379;49.820;8.648;2022-07-29T12:54:15;30.10;60.20
24250;DHT22;12379;49.820;8.648;2022-07-29T12:56:43;30.20;59.40
24250;DHT22;12379;49.820;8.648;2022-07-29T12:59:20;30.50;58.00
24250;DHT22;12379;49.820;8.648;2022-07-29T13:01:51;30.40;58.40
24250;DHT22;12379;49.820;8.648;2022-07-29T13:04:31;30.60;59.10
24250;DHT22;12379;49.820;8.648;2022-07-29T13:07:06;30.80;59.50
24250;DHT22;12379;49.820;8.648;2022-07-29T13:09:39;30.80;58.70
24250;DHT22;12379;49.820;8.648;2022-07-29T13:12:10;30.60;58.90
24250;DHT22;12379;49.820;8.648;2022-07-29T13:14:38;30.50;58.90
24250;DHT22;12379;49.820;8.648;2022-07-29T13:22:22;30.50;59.30
24250;DHT22;12379;49.820;8.648;2022-07-29T13:24:50;30.70;59.40
24250;DHT22;12379;49.820;8.648;2022-07-29T13:27:22;30.80;59.40
24250;DHT22;12379;49.820;8.648;2022-07-29T13:29:48;30.50;59.20
24250;DHT22;12379;49.820;8.648;2022-07-29T13:32:16;30.70;59.30
24250;DHT22;12379;49.820;8.648;2022-07-29T13:34:42;30.80;58.90
24250;DHT22;12379;49.820;8.648;2022-07-29T13:37:08;30.80;58.20
24250;DHT22;12379;49.820;8.648;2022-07-29T13:39:33;30.80;58.40
24250;DHT22;12379;49.820;8.648;2022-07-29T13:41:59;31.00;57.90
24250;DHT22;12379;49.820;8.648;2022-07-29T13:44:25;31.00;59.10
24250;DHT22;12379;49.820;8.648;2022-07-29T13:46:50;30.80;57.90
24250;DHT22;12379;49.820;8.648;2022-07-29T13:51:49;30.50;58.20
24250;DHT22;12379;49.820;8.648;2022-07-29T13:54:17;30.40;57.80
24250;DHT22;12379;49.820;8.648;2022-07-29T13:56:43;30.20;57.50
24250;DHT22;12379;49.820;8.648;2022-07-29T13:59:09;30.20;58.10
24250;DHT22;12379;49.820;8.648;2022-07-29T14:01:47;30.30;57.70
24250;DHT22;12379;49.820;8.648;2022-07-29T14:04:19;30.40;57.70
24250;DHT22;12379;49.820;8.648;2022-07-29T14:06:57;30.20;58.10
24250;DHT22;12379;49.820;8.648;2022-07-29T14:09:28;30.20;58.10
24250;DHT22;12379;49.820;8.648;2022-07-29T14:11:56;30.10;58.20
24250;DHT22;12379;49.820;8.648;2022-07-29T14:14:33;29.90;58.40
24250;DHT22;12379;49.820;8.648;2022-07-29T14:17:00;29.80;59.10
24250;DHT22;12379;49.820;8.648;2022-07-29T14:19:28;29.60;59.00
24250;DHT22;12379;49.820;8.648;2022-07-29T14:21:54;29.60;59.80
24250;DHT22;12379;49.820;8.648;2022-07-29T14:24:22;29.40;59.70
24250;DHT22;12379;49.820;8.648;2022-07-29T14:26:50;29.30;60.00
24250;DHT22;12379;49.820;8.648;2022-07-29T14:29:16;29.30;60.00
24250;DHT22;12379;49.820;8.648;2022-07-29T14:31:49;29.30;60.50
24250;DHT22;12379;49.820;8.648;2022-07-29T14:34:14;29.20;60.20
24250;DHT22;12379;49.820;8.648;2022-07-29T14:36:46;29.20;60.80
24250;DHT22;12379;49.820;8.648;2022-07-29T14:39:17;29.20;60.90
24250;DHT22;12379;49.820;8.648;2022-07-29T14:41:43;29.10;61.00
24250;DHT22;12379;49.820;8.648;2022-07-29T14:44:11;29.00;61.00
24250;DHT22;12379;49.820;8.648;2022-07-29T14:46:44;29.00;61.20
24250;DHT22;12379;49.820;8.648;2022-07-29T14:49:15;29.00;61.20
24250;DHT22;12379;49.820;8.648;2022-07-29T14:51:46;28.90;61.50
24250;DHT22;12379;49.820;8.648;2022-07-29T14:54:19;28.80;61.90
24250;DHT22;12379;49.820;8.648;2022-07-29T14:56:47;28.80;62.00
24250;DHT22;12379;49.820;8.648;2022-07-29T14:59:25;28.80;62.00
24250;DHT22;12379;49.820;8.648;2022-07-29T15:01:53;28.90;62.50
24250;DHT22;12379;49.820;8.648;2022-07-29T15:04:25;28.90;62.90
24250;DHT22;12379;49.820;8.648;2022-07-29T15:07:05;29.10;62.50
24250;DHT22;12379;49.820;8.648;2022-07-29T15:09:40;29.30;61.30
24250;DHT22;12379;49.820;8.648;2022-07-29T15:12:08;29.40;61.40
24250;DHT22;12379;49.820;8.648;2022-07-29T15:14:49;29.40;59.80
24250;DHT22;12379;49.820;8.648;2022-07-29T15:17:20;29.60;60.40
24250;DHT22;12379;49.820;8.648;2022-07-29T15:19:46;29.90;58.80
24250;DHT22;12379;49.820;8.648;2022-07-29T15:22:20;30.10;56.90
24250;DHT22;12379;49.820;8.648;2022-07-29T15:24:49;30.20;55.80
24250;DHT22;12379;49.820;8.648;2022-07-29T15:27:17;30.10;55.20
24250;DHT22;12379;49.820;8.648;2022-07-29T15:29:45;30.10;55.20
24250;DHT22;12379;49.820;8.648;2022-07-29T15:32:11;30.00;55.00
24250;DHT22;12379;49.820;8.648;2022-07-29T15:34:43;30.00;55.50
24250;DHT22;12379;49.820;8.648;2022-07-29T15:37:09;30.00;55.40
24250;DHT22;12379;49.820;8.648;2022-07-29T15:39:36;30.00;55.90
24250;DHT22;12379;49.820;8.648;2022-07-29T15:42:05;30.00;57.10
24250;DHT22;12379;49.820;8.648;2022-07-29T15:44:31;30.00;57.40
24250;DHT22;12379;49.820;8.648;2022-07-29T15:46:57;29.70;57.20
24250;DHT22;12379;49.820;8.648;2022-07-29T15:49:36;29.60;58.00
24250;DHT22;12379;49.820;8.648;2022-07-29T15:52:10;29.70;58.30
24250;DHT22;12379;49.820;8.648;2022-07-29T15:54:41;29.70;57.60
24250;DHT22;12379;49.820;8.648;2022-07-29T15:57:39;29.70;58.30
24250;DHT22;12379;49.820;8.648;2022-07-29T16:00:08;29.50;58.30
24250;DHT22;12379;49.820;8.648;2022-07-29T16:02:37;29.30;59.00
24250;DHT22;12379;49.820;8.648;2022-07-29T16:05:21;29.30;58.90
24250;DHT22;12379;49.820;8.648;2022-07-29T16:07:50;29.30;58.60
24250;DHT22;12379;49.820;8.648;2022-07-29T16:10:33;29.10;58.60
24250;DHT22;12379;49.820;8.648;2022-07-29T16:13:11;29.10;59.10
24250;DHT22;12379;49.820;8.648;2022-07-29T16:16:13;29.20;59.60
24250;DHT22;12379;49.820;8.648;2022-07-29T16:18:48;29.00;60.00
24250;DHT22;12379;49.820;8.648;2022-07-29T16:21:22;29.20;60.60
24250;DHT22;12379;49.820;8.648;2022-07-29T16:23:51;29.20;63.90
24250;DHT22;12379;49.820;8.648;2022-07-29T16:26:17;29.10;65.30
24250;DHT22;12379;49.820;8.648;2022-07-29T16:28:56;29.00;65.90
24250;DHT22;12379;49.820;8.648;2022-07-29T16:31:27;28.70;66.40
24250;DHT22;12379;49.820;8.648;2022-07-29T16:34:22;28.40;66.70
24250;DHT22;12379;49.820;8.648;2022-07-29T16:37:09;28.00;67.80
24250;DHT22;12379;49.820;8.648;2022-07-29T16:39:48;27.70;67.80